createdAt,value
2023-01-17T00:02:07.065Z,75.15
2023-01-17T00:05:06.887Z,75.29
2023-01-17T00:07:52.420Z,74.92
2023-01-17T00:10:22.298Z,75.52
2023-01-17T00:12:53.065Z,74.75
2023-01-17T00:15:23.140Z,74.66
2023-01-17T00:17:51.517Z,74.98
2023-01-17T00:20:38.895Z,75.23
2023-01-17T00:23:25.584Z,74.67
2023-01-17T00:26:05.538Z,75.27
2023-01-17T00:28:35.566Z,75.44
2023-01-17T00:31:02.519Z,74.59
2023-01-17T00:33:29.172Z,74.66
2023-01-17T00:35:57.048Z,75.09
2023-01-17T00:38:25.148Z,75.53
2023-01-17T00:40:52.090Z,75.40
2023-01-17T00:43:38.918Z,74.90
2023-01-17T00:46:25.872Z,75.40
2023-01-17T00:49:11.274Z,75.52
2023-01-17T00:51:56.542Z,76.28
2023-01-17T00:54:41.499Z,76.25
2023-01-17T00:57:27.033Z,76.03
2023-01-17T01:00:12.412Z,76.68
2023-01-17T01:02:59.044Z,76.74
2023-01-17T01:05:44.012Z,77.07
2023-01-17T01:08:40.281Z,76.95
2023-01-17T01:11:27.374Z,77.67
2023-01-17T01:14:12.808Z,76.68
2023-01-17T01:16:58.150Z,77.47
2023-01-17T01:19:44.641Z,78.35
2023-01-17T01:22:29.639Z,77.58
2023-01-17T01:25:14.907Z,77.08
2023-01-17T01:28:00.074Z,77.53
2023-01-17T01:30:45.245Z,77.99
2023-01-17T01:33:20.579Z,78.26
2023-01-17T01:35:51.624Z,78.60
2023-01-17T01:38:20.418Z,77.39
2023-01-17T01:40:49.945Z,77.54
2023-01-17T01:43:19.755Z,76.85
2023-01-17T01:45:51.760Z,77.06
2023-01-17T01:48:32.842Z,76.49
2023-01-17T01:51:04.942Z,76.91
2023-01-17T01:53:35.745Z,76.34
2023-01-17T01:56:07.023Z,76.55
2023-01-17T01:58:37.714Z,76.88
2023-01-17T02:01:06.450Z,76.72
2023-01-17T02:03:35.637Z,76.79
2023-01-17T02:06:15.527Z,76.80
2023-01-17T02:08:43.505Z,77.26
2023-01-17T02:11:11.880Z,77.16
2023-01-17T02:13:39.525Z,77.34
2023-01-17T02:16:18.488Z,77.47
2023-01-17T02:18:56.353Z,78.53
2023-01-17T02:21:28.255Z,79.48
2023-01-17T02:24:26.759Z,79.46
2023-01-17T02:27:05.449Z,79.12
2023-01-17T02:30:06.381Z,78.58
2023-01-17T02:32:47.585Z,78.43
2023-01-17T02:35:25.470Z,78.06
2023-01-17T02:38:02.066Z,78.08
2023-01-17T02:40:35.649Z,78.36
2023-01-17T02:43:07.489Z,78.06
2023-01-17T02:45:35.376Z,79.00
2023-01-17T02:48:08.079Z,77.77
2023-01-17T02:50:52.885Z,78.29
2023-01-17T02:53:32.747Z,78.20
2023-01-17T02:56:09.967Z,77.90
2023-01-17T02:58:55.110Z,77.27
2023-01-17T03:01:30.103Z,77.81
2023-01-17T03:04:04.767Z,77.20
2023-01-17T03:06:37.394Z,77.69
2023-01-17T03:09:05.825Z,77.28
2023-01-17T03:11:34.398Z,77.87
2023-01-17T03:14:02.199Z,77.61
2023-01-17T03:16:32.887Z,77.64
2023-01-17T03:19:02.154Z,77.78
2023-01-17T03:21:29.701Z,77.67
2023-01-17T03:23:57.261Z,77.16
2023-01-17T03:26:24.891Z,77.70
2023-01-17T03:28:52.435Z,77.80
2023-01-17T03:31:20.802Z,76.47
2023-01-17T03:33:48.567Z,76.90
2023-01-17T03:36:18.465Z,76.31
2023-01-17T03:38:46.008Z,76.64
2023-01-17T03:41:13.670Z,76.94
2023-01-17T03:43:41.220Z,76.80
2023-01-17T03:46:19.652Z,76.80
2023-01-17T03:48:47.296Z,77.17
2023-01-17T03:51:15.060Z,77.95
2023-01-17T03:53:46.254Z,76.56
2023-01-17T03:56:14.494Z,76.39
2023-01-17T03:58:42.500Z,76.53
2023-01-17T04:01:10.458Z,76.80
2023-01-17T04:03:38.099Z,75.81
2023-01-17T04:06:06.131Z,77.47
2023-01-17T04:08:33.912Z,77.54
2023-01-17T04:11:03.008Z,77.55
2023-01-17T04:13:30.582Z,76.99
2023-01-17T04:15:58.377Z,76.95
2023-01-17T04:18:26.503Z,75.82
2023-01-17T04:20:54.211Z,76.68
2023-01-17T04:23:21.804Z,75.90
2023-01-17T04:25:49.367Z,76.53
2023-01-17T04:28:18.281Z,76.18
2023-01-17T04:30:45.912Z,75.50
2023-01-17T04:33:13.695Z,76.62
2023-01-17T04:35:41.402Z,76.20
2023-01-17T04:38:09.078Z,76.67
2023-01-17T04:40:36.785Z,76.67
2023-01-17T04:43:04.376Z,76.93
2023-01-17T04:45:33.401Z,77.00
2023-01-17T04:48:04.941Z,77.74
2023-01-17T04:50:32.622Z,77.05
2023-01-17T04:53:00.438Z,76.63
2023-01-17T04:55:28.327Z,76.24
2023-01-17T04:57:56.107Z,76.74
2023-01-17T05:00:24.310Z,76.36
2023-01-17T05:02:53.533Z,75.98
2023-01-17T05:05:21.171Z,76.38
2023-01-17T05:07:54.692Z,75.54
2023-01-17T05:10:22.551Z,76.24
2023-01-17T05:12:55.137Z,75.52
2023-01-17T05:15:22.967Z,74.98
2023-01-17T05:17:54.300Z,76.04
2023-01-17T05:20:23.348Z,75.17
2023-01-17T05:22:55.772Z,74.72
2023-01-17T05:25:23.808Z,75.77
2023-01-17T05:27:51.457Z,75.48
2023-01-17T05:30:20.180Z,75.55
2023-01-17T05:32:49.720Z,76.20
2023-01-17T05:35:19.664Z,75.65
2023-01-17T05:37:49.057Z,74.96
2023-01-17T05:40:17.353Z,75.30
2023-01-17T05:42:48.597Z,75.74
2023-01-17T05:45:17.628Z,76.17
2023-01-17T05:47:45.313Z,74.88
2023-01-17T05:50:13.816Z,75.57
2023-01-17T05:52:43.074Z,75.29
2023-01-17T05:55:11.354Z,75.39
2023-01-17T05:57:39.781Z,75.88
2023-01-17T06:00:08.943Z,75.80
2023-01-17T06:02:36.637Z,76.18
2023-01-17T06:05:04.665Z,76.07
2023-01-17T06:07:32.899Z,76.43
2023-01-17T06:10:01.949Z,77.11
2023-01-17T06:12:29.775Z,76.97
2023-01-17T06:14:58.121Z,77.37
2023-01-17T06:17:25.803Z,77.36
2023-01-17T06:19:53.377Z,77.55
2023-01-17T06:22:21.070Z,77.09
2023-01-17T06:24:48.702Z,77.64
2023-01-17T06:27:17.605Z,77.12
2023-01-17T06:29:45.334Z,77.41
2023-01-17T06:32:14.239Z,77.52
2023-01-17T06:34:42.295Z,77.72
2023-01-17T06:37:09.966Z,77.79
2023-01-17T06:39:37.721Z,77.44
2023-01-17T06:42:05.361Z,77.34
2023-01-17T06:44:34.299Z,77.88
2023-01-17T06:47:01.882Z,78.11
2023-01-17T06:49:29.736Z,78.74
2023-01-17T06:51:57.391Z,79.29
2023-01-17T06:54:25.049Z,80.82
2023-01-17T06:56:52.630Z,82.65
2023-01-17T06:59:20.179Z,83.91
2023-01-17T07:01:49.316Z,83.90
2023-01-17T07:04:17.103Z,83.63
2023-01-17T07:06:44.770Z,83.41
2023-01-17T07:09:12.425Z,82.69
2023-01-17T07:11:40.008Z,83.53
2023-01-17T07:14:13.500Z,83.97
2023-01-17T07:16:43.591Z,84.35
2023-01-17T07:19:12.990Z,85.09
2023-01-17T07:21:40.679Z,85.10
2023-01-17T07:24:09.061Z,85.16
2023-01-17T07:26:37.727Z,85.65
2023-01-17T07:29:05.708Z,86.05
2023-01-17T07:31:35.215Z,85.68
2023-01-17T07:34:03.093Z,85.91
2023-01-17T07:36:32.042Z,86.00
2023-01-17T07:38:59.793Z,85.86
2023-01-17T07:41:27.397Z,85.46
2023-01-17T07:43:56.405Z,85.54
2023-01-17T07:46:24.261Z,85.32
2023-01-17T07:48:52.142Z,85.92
2023-01-17T07:51:19.863Z,85.92
2023-01-17T07:53:48.773Z,86.48
2023-01-17T07:56:16.415Z,86.32
2023-01-17T07:58:44.020Z,86.86
2023-01-17T08:01:13.419Z,87.40
2023-01-17T08:03:41.181Z,87.07
2023-01-17T08:06:17.023Z,87.35
2023-01-17T08:08:44.644Z,86.98
2023-01-17T08:11:13.857Z,87.17
2023-01-17T08:13:41.782Z,87.52
2023-01-17T08:16:10.669Z,87.97
2023-01-17T08:18:38.453Z,87.76
2023-01-17T08:21:12.922Z,88.21
2023-01-17T08:23:40.514Z,87.97
2023-01-17T08:26:08.093Z,88.14
2023-01-17T08:28:37.098Z,88.53
2023-01-17T08:31:08.709Z,87.50
2023-01-17T08:33:36.505Z,87.16
2023-01-17T08:36:04.367Z,86.97
2023-01-17T08:38:32.336Z,87.18
2023-01-17T08:41:01.436Z,86.84
2023-01-17T08:43:29.119Z,87.00
2023-01-17T08:45:58.130Z,86.98
2023-01-17T08:48:25.832Z,86.09
2023-01-17T08:50:53.551Z,86.72
2023-01-17T08:53:23.058Z,86.91
2023-01-17T08:55:58.429Z,87.03
2023-01-17T08:58:29.778Z,86.72
2023-01-17T09:01:02.585Z,86.80
2023-01-17T09:03:30.888Z,86.43
2023-01-17T09:06:02.909Z,85.96
2023-01-17T09:08:30.546Z,85.50
2023-01-17T09:10:58.223Z,85.14
2023-01-17T09:13:25.928Z,85.17
2023-01-17T09:15:57.306Z,85.11
2023-01-17T09:18:26.625Z,85.07
2023-01-17T09:20:55.351Z,85.35
2023-01-17T09:23:23.350Z,84.74
2023-01-17T09:25:54.483Z,84.49
2023-01-17T09:28:22.579Z,84.78
2023-01-17T09:30:50.667Z,84.74
2023-01-17T09:33:18.569Z,84.61
2023-01-17T09:35:47.701Z,85.12
2023-01-17T09:38:15.327Z,84.31
2023-01-17T09:40:46.596Z,84.69
2023-01-17T09:43:23.186Z,84.65
2023-01-17T09:45:51.509Z,84.76
2023-01-17T09:48:29.209Z,84.80
2023-01-17T09:51:03.692Z,84.52
2023-01-17T09:53:35.978Z,83.92
2023-01-17T09:56:08.534Z,83.22
2023-01-17T09:58:43.341Z,82.91
2023-01-17T10:01:19.583Z,82.10
2023-01-17T10:04:13.578Z,82.65
2023-01-17T10:06:56.316Z,81.94
2023-01-17T10:09:45.977Z,81.96
2023-01-17T10:12:21.997Z,81.06
2023-01-17T10:15:10.045Z,80.41
2023-01-17T10:17:47.867Z,79.83
2023-01-17T10:20:45.028Z,78.19
2023-01-17T10:23:28.668Z,77.64
2023-01-17T10:26:00.903Z,77.34
2023-01-17T10:28:34.810Z,77.01
2023-01-17T10:31:06.846Z,77.37
2023-01-17T10:33:42.334Z,77.02
2023-01-17T10:36:15.688Z,77.25
2023-01-17T10:38:48.950Z,76.96
2023-01-17T10:41:22.849Z,76.26
2023-01-17T10:43:58.376Z,75.53
2023-01-17T10:46:32.446Z,73.91
2023-01-17T10:49:01.655Z,74.07
2023-01-17T10:52:11.819Z,73.92
2023-01-17T10:55:17.912Z,71.03
2023-01-17T10:57:48.332Z,69.25
2023-01-17T11:00:33.324Z,68.80
2023-01-17T11:03:02.753Z,68.47
2023-01-17T11:05:32.064Z,69.98
2023-01-17T11:08:01.905Z,70.02
2023-01-17T11:10:40.879Z,69.46
2023-01-17T11:13:24.638Z,69.55
2023-01-17T11:15:57.471Z,70.14
2023-01-17T11:18:27.758Z,68.76
2023-01-17T11:21:12.093Z,68.03
2023-01-17T11:23:42.581Z,68.12
2023-01-17T11:26:13.953Z,67.57
2023-01-17T11:28:42.441Z,66.66
2023-01-17T11:31:26.366Z,65.23
2023-01-17T11:34:09.463Z,64.27
2023-01-17T11:36:37.127Z,63.75
2023-01-17T11:39:07.037Z,64.59
2023-01-17T11:41:38.022Z,64.63
2023-01-17T11:44:22.637Z,65.93
2023-01-17T11:46:51.206Z,67.42
2023-01-17T11:49:26.332Z,68.15
2023-01-17T11:51:56.159Z,67.10
2023-01-17T11:54:29.700Z,68.24
2023-01-17T11:57:01.586Z,68.22
2023-01-17T11:59:31.493Z,65.38
2023-01-17T12:02:21.912Z,64.41
2023-01-17T12:05:00.829Z,62.48
2023-01-17T12:07:37.047Z,62.13
2023-01-17T12:10:13.161Z,62.07
2023-01-17T12:13:13.025Z,62.50
2023-01-17T12:15:55.609Z,63.37
2023-01-17T12:18:37.101Z,65.02
2023-01-17T12:21:17.864Z,66.09
2023-01-17T12:24:05.651Z,65.55
2023-01-17T12:26:38.856Z,65.72
2023-01-17T12:29:42.922Z,64.95
2023-01-17T12:32:23.388Z,63.99
2023-01-17T12:34:55.888Z,63.20
2023-01-17T12:37:30.406Z,64.09
2023-01-17T12:40:00.943Z,64.26
2023-01-17T12:42:34.155Z,64.14
2023-01-17T12:45:07.333Z,62.87
2023-01-17T12:47:41.627Z,63.01
2023-01-17T12:50:20.331Z,62.78
2023-01-17T12:52:54.780Z,63.61
2023-01-17T12:55:33.977Z,64.71
2023-01-17T12:58:05.075Z,65.63
2023-01-17T13:00:39.079Z,64.04
2023-01-17T13:03:16.448Z,62.81
2023-01-17T13:05:48.499Z,62.08
2023-01-17T13:08:24.694Z,62.36
2023-01-17T13:10:57.114Z,63.97
2023-01-17T13:13:26.793Z,62.57
2023-01-17T13:15:58.976Z,63.33
2023-01-17T13:18:29.668Z,63.72
2023-01-17T13:21:09.629Z,62.63
2023-01-17T13:23:59.602Z,63.51
2023-01-17T13:26:33.464Z,63.31
2023-01-17T13:29:08.650Z,63.36
2023-01-17T13:31:47.839Z,63.73
2023-01-17T13:34:38.566Z,63.84
2023-01-17T13:37:27.280Z,63.63
2023-01-17T13:40:19.138Z,63.37
2023-01-17T13:42:55.955Z,62.20
2023-01-17T13:45:28.210Z,63.21
2023-01-17T13:48:25.875Z,65.27
2023-01-17T13:50:55.678Z,65.39
2023-01-17T13:53:59.372Z,65.14
2023-01-17T13:56:37.187Z,65.69
2023-01-17T13:59:20.691Z,65.47
2023-01-17T14:01:55.856Z,66.44
2023-01-17T14:04:26.521Z,65.49
2023-01-17T14:06:57.782Z,65.45
2023-01-17T14:09:41.017Z,65.13
2023-01-17T14:12:29.147Z,66.16
2023-01-17T14:15:00.469Z,66.51
2023-01-17T14:17:47.965Z,65.72
2023-01-17T14:20:41.194Z,65.02
2023-01-17T14:23:27.257Z,66.08
2023-01-17T14:25:56.791Z,66.05
2023-01-17T14:28:31.899Z,66.86
2023-01-17T14:31:03.376Z,67.01
2023-01-17T14:33:36.961Z,66.67
2023-01-17T14:36:08.911Z,67.90
2023-01-17T14:38:42.971Z,67.92
2023-01-17T14:41:15.594Z,68.37
2023-01-17T14:43:45.217Z,67.71
2023-01-17T14:46:19.724Z,69.21
2023-01-17T14:48:47.699Z,67.97
2023-01-17T14:51:21.241Z,66.84
2023-01-17T14:53:57.086Z,65.22
2023-01-17T14:56:26.682Z,65.43
2023-01-17T14:59:14.508Z,65.23
2023-01-17T15:01:43.088Z,66.55
2023-01-17T15:04:24.884Z,67.05
2023-01-17T15:06:55.007Z,67.18
2023-01-17T15:09:25.780Z,65.94
2023-01-17T15:11:55.260Z,65.21
2023-01-17T15:14:27.677Z,65.86
2023-01-17T15:16:55.685Z,65.31
2023-01-17T15:19:24.205Z,66.42
2023-01-17T15:21:55.257Z,66.50
2023-01-17T15:24:26.238Z,65.21
2023-01-17T15:26:54.620Z,64.29
2023-01-17T15:29:27.673Z,66.01
2023-01-17T15:31:58.103Z,66.85
2023-01-17T15:34:29.315Z,66.43
2023-01-17T15:37:01.382Z,65.42
2023-01-17T15:39:31.266Z,66.51
2023-01-17T15:42:01.548Z,66.06
2023-01-17T15:44:47.454Z,66.82
2023-01-17T15:47:31.361Z,66.34
2023-01-17T15:50:00.687Z,66.44
2023-01-17T15:52:30.111Z,66.12
2023-01-17T15:55:12.464Z,65.92
2023-01-17T15:57:40.729Z,66.12
2023-01-17T16:00:21.822Z,65.80
2023-01-17T16:02:51.866Z,66.06
2023-01-17T16:05:41.809Z,65.79
2023-01-17T16:08:29.114Z,65.11
2023-01-17T16:11:01.826Z,65.15
2023-01-17T16:13:30.517Z,64.81
2023-01-17T16:16:20.545Z,66.19
2023-01-17T16:18:49.368Z,65.62
2023-01-17T16:21:23.706Z,66.61
2023-01-17T16:23:53.036Z,66.73
2023-01-17T16:26:21.155Z,66.07
2023-01-17T16:28:49.168Z,66.24
2023-01-17T16:31:17.190Z,66.59
2023-01-17T16:33:45.977Z,65.95
2023-01-17T16:36:16.344Z,66.56
2023-01-17T16:38:45.288Z,67.26
2023-01-17T16:41:14.220Z,67.14
2023-01-17T16:43:41.853Z,67.86
2023-01-17T16:46:11.861Z,67.83
2023-01-17T16:48:39.445Z,67.92
2023-01-17T16:51:08.226Z,67.31
2023-01-17T16:53:36.559Z,67.23
2023-01-17T16:56:10.019Z,68.30
2023-01-17T16:58:39.216Z,68.15
2023-01-17T17:01:09.795Z,68.77
2023-01-17T17:03:37.405Z,68.93
2023-01-17T17:06:05.393Z,68.70
2023-01-17T17:08:34.484Z,67.78
2023-01-17T17:11:09.117Z,68.66
2023-01-17T17:13:36.987Z,67.86
2023-01-17T17:16:12.661Z,68.39
2023-01-17T17:18:40.299Z,69.57
2023-01-17T17:21:08.319Z,69.36
2023-01-17T17:23:35.902Z,68.15
2023-01-17T17:26:03.489Z,69.41
2023-01-17T17:28:31.099Z,68.84
2023-01-17T17:31:07.441Z,68.04
2023-01-17T17:33:36.862Z,69.77
2023-01-17T17:36:06.426Z,71.88
2023-01-17T17:38:35.843Z,70.63
2023-01-17T17:41:09.587Z,69.00
2023-01-17T17:43:40.406Z,69.36
2023-01-17T17:46:09.078Z,68.10
2023-01-17T17:48:38.453Z,67.34
2023-01-17T17:51:07.434Z,67.56
2023-01-17T17:53:35.421Z,67.25
2023-01-17T17:56:04.543Z,66.84
2023-01-17T17:58:34.100Z,67.20
2023-01-17T18:01:05.803Z,66.60
2023-01-17T18:03:33.529Z,66.58
2023-01-17T18:06:08.123Z,67.56
2023-01-17T18:08:36.951Z,67.18
2023-01-17T18:11:07.297Z,66.47
2023-01-17T18:13:35.123Z,67.37
2023-01-17T18:16:06.106Z,66.36
2023-01-17T18:18:34.826Z,66.73
2023-01-17T18:21:09.140Z,67.29
2023-01-17T18:23:38.775Z,67.38
2023-01-17T18:26:07.063Z,68.22
2023-01-17T18:28:34.676Z,68.39
2023-01-17T18:31:06.831Z,68.53
2023-01-17T18:33:35.661Z,68.46
2023-01-17T18:36:04.745Z,67.21
2023-01-17T18:38:38.826Z,67.06
2023-01-17T18:41:07.305Z,68.53
2023-01-17T18:43:35.275Z,68.61
2023-01-17T18:46:03.140Z,68.95
2023-01-17T18:48:30.888Z,69.53
2023-01-17T18:51:00.440Z,69.31
2023-01-17T18:53:29.814Z,69.06
2023-01-17T18:56:01.070Z,69.47
2023-01-17T18:58:30.915Z,71.04
2023-01-17T19:01:08.143Z,72.12
2023-01-17T19:03:35.883Z,73.07
2023-01-17T19:06:04.319Z,70.06
2023-01-17T19:08:33.080Z,72.62
2023-01-17T19:11:04.175Z,72.69
2023-01-17T19:13:32.667Z,73.90
2023-01-17T19:16:01.195Z,74.09
2023-01-17T19:18:29.609Z,74.38
2023-01-17T19:20:57.689Z,74.24
2023-01-17T19:23:25.396Z,75.31
2023-01-17T19:25:56.368Z,76.31
2023-01-17T19:28:25.461Z,76.03
2023-01-17T19:31:03.097Z,75.45
2023-01-17T19:33:30.907Z,75.49
2023-01-17T19:36:03.036Z,76.00
2023-01-17T19:38:30.912Z,75.83
2023-01-17T19:40:58.689Z,75.88
2023-01-17T19:43:28.025Z,75.16
2023-01-17T19:45:59.605Z,74.37
2023-01-17T19:48:28.098Z,74.21
2023-01-17T19:50:55.963Z,74.04
2023-01-17T19:53:24.724Z,73.56
2023-01-17T19:55:52.684Z,72.30
2023-01-17T19:58:20.391Z,71.10
2023-01-17T20:00:49.714Z,71.41
2023-01-17T20:03:17.656Z,70.58
2023-01-17T20:05:46.117Z,70.53
2023-01-17T20:08:14.315Z,71.03
2023-01-17T20:10:42.072Z,70.11
2023-01-17T20:13:09.643Z,68.71
2023-01-17T20:15:37.232Z,70.03
2023-01-17T20:18:06.393Z,69.13
2023-01-17T20:20:34.443Z,68.46
2023-01-17T20:23:05.393Z,67.41
2023-01-17T20:25:33.060Z,66.84
2023-01-17T20:28:00.691Z,66.50
2023-01-17T20:30:30.609Z,65.81
2023-01-17T20:32:58.188Z,66.39
2023-01-17T20:35:28.638Z,67.23
2023-01-17T20:37:56.482Z,67.59
2023-01-17T20:40:24.247Z,67.17
2023-01-17T20:42:51.781Z,68.72
2023-01-17T20:45:19.371Z,67.38
2023-01-17T20:47:47.025Z,67.71
2023-01-17T20:50:14.642Z,68.58
2023-01-17T20:52:43.642Z,67.56
2023-01-17T20:55:11.237Z,67.14
2023-01-17T20:57:39.005Z,67.62
2023-01-17T21:00:09.401Z,67.11
2023-01-17T21:02:37.138Z,67.38
2023-01-17T21:05:05.309Z,67.57
2023-01-17T21:07:32.941Z,68.08
2023-01-17T21:10:01.930Z,67.84
2023-01-17T21:12:30.927Z,68.06
2023-01-17T21:14:58.573Z,67.86
2023-01-17T21:17:26.346Z,67.48
2023-01-17T21:19:53.933Z,69.17
2023-01-17T21:22:21.556Z,68.77
2023-01-17T21:24:49.168Z,68.44
2023-01-17T21:27:18.111Z,67.83
2023-01-17T21:29:45.906Z,69.83
2023-01-17T21:32:13.460Z,69.55
2023-01-17T21:34:41.060Z,69.12
2023-01-17T21:37:08.654Z,69.32
2023-01-17T21:39:36.256Z,68.65
2023-01-17T21:42:03.837Z,69.63
2023-01-17T21:44:36.204Z,69.72
2023-01-17T21:47:04.490Z,69.41
2023-01-17T21:49:32.411Z,69.59
2023-01-17T21:52:17.484Z,70.25
2023-01-17T21:55:02.839Z,69.02
2023-01-17T21:57:48.249Z,68.82
2023-01-17T22:00:18.297Z,69.22
2023-01-17T22:02:46.750Z,69.72
2023-01-17T22:05:16.343Z,69.50
2023-01-17T22:08:05.349Z,69.82
2023-01-17T22:10:44.276Z,70.85
2023-01-17T22:13:13.424Z,69.44
2023-01-17T22:15:42.888Z,69.08
2023-01-17T22:18:10.627Z,69.01
2023-01-17T22:20:40.118Z,69.66
2023-01-17T22:23:08.202Z,70.30
2023-01-17T22:25:36.037Z,69.36
2023-01-17T22:28:03.718Z,69.00
2023-01-17T22:30:31.358Z,69.63
2023-01-17T22:33:00.251Z,69.73
2023-01-17T22:35:27.808Z,69.00
2023-01-17T22:37:55.496Z,70.18
2023-01-17T22:40:23.936Z,69.40
2023-01-17T22:42:51.568Z,69.08
2023-01-17T22:45:19.175Z,69.75
2023-01-17T22:47:46.779Z,69.03
2023-01-17T22:50:15.696Z,69.46
2023-01-17T22:52:43.331Z,68.49
2023-01-17T22:55:12.110Z,68.24
2023-01-17T22:57:39.709Z,68.69
2023-01-17T23:00:14.353Z,69.85
2023-01-17T23:02:42.605Z,69.82
2023-01-17T23:05:10.954Z,69.91
2023-01-17T23:07:46.443Z,69.48
2023-01-17T23:10:36.554Z,68.57
2023-01-17T23:13:04.148Z,69.70
2023-01-17T23:15:49.326Z,70.29
2023-01-17T23:18:34.364Z,69.62
2023-01-17T23:21:01.906Z,69.35
2023-01-17T23:23:30.839Z,70.30
2023-01-17T23:26:00.822Z,69.73
2023-01-17T23:28:27.415Z,69.92
2023-01-17T23:30:54.941Z,70.18
2023-01-17T23:33:22.470Z,69.93
2023-01-17T23:35:50.006Z,69.74
2023-01-17T23:38:29.915Z,70.12
2023-01-17T23:41:21.420Z,71.13
2023-01-17T23:43:52.799Z,70.95
2023-01-17T23:46:21.106Z,69.73
2023-01-17T23:48:49.230Z,71.25
2023-01-17T23:51:16.764Z,70.88
2023-01-17T23:53:44.788Z,70.70
2023-01-17T23:56:17.325Z,71.00
2023-01-17T23:58:45.105Z,72.16
